Time;durP1;ratioP1;P1;durP2;ratioP2;P2;SDS_P1;SDS_P2;PMS_P1;PMS_P2;Temp;Humidity;BMP_temperature;BMP_pressure;BME280_temperature;BME280_humidity;BME280_pressure;Samples;Min_cycle;Max_cycle;Signal;HPM_P1;HPM_P2
2022/09/17 00:01:05;;;;;;;;;;;11.40;99.90;;;;;;6312338;22;19919;-77
2022/09/17 00:03:30;;;;;;;;;;;11.40;99.90;;;;;;6286902;22;19919;-76
2022/09/17 00:06:03;;;;;;;;;;;11.30;99.90;;;;;;6286837;22;19925;-76
2022/09/17 00:08:29;;;;;;;;;;;11.50;99.90;;;;;;6312358;22;19914;-78
2022/09/17 00:10:54;;;;;;;;;;;11.50;99.90;;;;;;6286562;22;20222;-77
2022/09/17 00:13:20;;;;;;;;;;;11.50;99.90;;;;;;6286914;22;20279;-77
2022/09/17 00:15:46;;;;;;;;;;;11.60;99.90;;;;;;6286540;22;19925;-79
2022/09/17 00:18:12;;;;;;;;;;;11.70;99.90;;;;;;6286480;22;20255;-78
2022/09/17 00:20:39;;;;;;;;;;;11.70;99.90;;;;;;6312287;22;19915;-75
2022/09/17 00:23:04;;;;;;;;;;;11.80;99.90;;;;;;6312324;22;20295;-77
2022/09/17 00:25:30;;;;;;;;;;;11.60;99.90;;;;;;6312176;22;19918;-78
2022/09/17 00:27:56;;;;;;;;;;;11.50;99.90;;;;;;6286357;22;19930;-76
2022/09/17 00:30:21;;;;;;;;;;;11.50;99.90;;;;;;6312122;22;19967;-76
2022/09/17 00:32:47;;;;;;;;;;;11.50;99.90;;;;;;6286256;22;19918;-76
2022/09/17 00:35:12;;;;;;;;;;;11.60;99.90;;;;;;6285706;22;19918;-76
2022/09/17 00:37:38;;;;;;;;;;;11.50;99.90;;;;;;6285682;22;20295;-77
2022/09/17 00:40:03;;;;;;;;;;;11.50;99.90;;;;;;6285266;22;19993;-77
2022/09/17 00:42:29;;;;;;;;;;;11.50;99.90;;;;;;6311500;22;19925;-76
2022/09/17 00:44:55;;;;;;;;;;;11.50;99.90;;;;;;6311528;22;20253;-77
2022/09/17 00:47:29;;;;;;;;;;;11.40;99.90;;;;;;6311519;22;20364;-76
2022/09/17 00:50:15;;;;;;;;;;;11.30;99.90;;;;;;6311075;22;20040;-78
2022/09/17 00:52:50;;;;;;;;;;;11.10;99.90;;;;;;6290018;22;19997;-77
2022/09/17 00:55:18;;;;;;;;;;;11.00;99.90;;;;;;6299319;22;19915;-76
2022/09/17 00:57:44;;;;;;;;;;;10.90;99.90;;;;;;6284750;22;19954;-78
2022/09/17 01:00:11;;;;;;;;;;;10.90;99.90;;;;;;6283606;22;19942;-76
2022/09/17 01:02:37;;;;;;;;;;;10.90;99.90;;;;;;6285098;22;19954;-75
2022/09/17 01:05:03;;;;;;;;;;;11.00;99.90;;;;;;6311507;22;19919;-77
2022/09/17 01:07:31;;;;;;;;;;;11.20;99.90;;;;;;6311565;22;19946;-78
2022/09/17 01:10:05;;;;;;;;;;;11.30;99.90;;;;;;6311236;22;19949;-77
2022/09/17 01:12:37;;;;;;;;;;;11.30;99.90;;;;;;6285778;22;19984;-75
2022/09/17 01:15:05;;;;;;;;;;;11.10;99.90;;;;;;6311432;22;19954;-75
2022/09/17 01:17:42;;;;;;;;;;;11.20;99.90;;;;;;6311364;22;19998;-77
2022/09/17 01:20:27;;;;;;;;;;;11.10;99.90;;;;;;6284774;22;19929;-79
2022/09/17 01:22:58;;;;;;;;;;;11.20;99.90;;;;;;6285139;22;19924;-77
2022/09/17 01:25:36;;;;;;;;;;;11.10;99.90;;;;;;6285647;22;19919;-76
2022/09/17 01:28:04;;;;;;;;;;;11.10;99.90;;;;;;6285621;22;20237;-76
2022/09/17 01:30:34;;;;;;;;;;;11.10;99.90;;;;;;6310946;22;19918;-76
2022/09/17 01:33:20;;;;;;;;;;;11.10;99.90;;;;;;6285131;22;19968;-75
2022/09/17 01:36:04;;;;;;;;;;;11.10;99.90;;;;;;6285398;22;20006;-75
2022/09/17 01:38:33;;;;;;;;;;;11.20;99.90;;;;;;6313353;22;19941;-78
2022/09/17 01:41:08;;;;;;;;;;;11.20;99.90;;;;;;6286731;22;19919;-77
2022/09/17 01:43:33;;;;;;;;;;;11.20;99.90;;;;;;6286883;22;19914;-76
2022/09/17 01:46:03;;;;;;;;;;;11.20;99.90;;;;;;6313039;22;19937;-76
2022/09/17 01:48:32;;;;;;;;;;;11.30;99.90;;;;;;6287476;22;19922;-78
2022/09/17 01:51:03;;;;;;;;;;;11.30;99.90;;;;;;6286896;22;19972;-77
2022/09/17 01:53:53;;;;;;;;;;;11.30;99.90;;;;;;6287017;22;19914;-76
2022/09/17 01:56:23;;;;;;;;;;;11.30;99.90;;;;;;6312789;22;19968;-76
2022/09/17 01:58:55;;;;;;;;;;;11.30;99.90;;;;;;6287111;22;20382;-76
2022/09/17 02:01:22;;;;;;;;;;;11.20;99.90;;;;;;6312831;22;19923;-76
2022/09/17 02:03:53;;;;;;;;;;;11.20;99.90;;;;;;6313198;22;19926;-76
2022/09/17 02:06:22;;;;;;;;;;;11.20;99.90;;;;;;6287405;22;19967;-77
2022/09/17 02:08:51;;;;;;;;;;;11.30;99.90;;;;;;6286837;22;19919;-77
2022/09/17 02:11:17;;;;;;;;;;;11.30;99.90;;;;;;6312744;22;19997;-77
2022/09/17 02:14:00;;;;;;;;;;;11.30;99.90;;;;;;6313348;22;19919;-77
2022/09/17 02:16:27;;;;;;;;;;;11.30;99.90;;;;;;6312591;22;19958;-76
2022/09/17 02:18:58;;;;;;;;;;;11.30;99.90;;;;;;6286211;22;19919;-78
2022/09/17 02:21:24;;;;;;;;;;;11.30;99.90;;;;;;6311946;22;19926;-77
2022/09/17 02:23:56;;;;;;;;;;;11.30;99.90;;;;;;6286567;22;19918;-78
2022/09/17 02:26:23;;;;;;;;;;;11.60;99.90;;;;;;6311924;22;19942;-76
2022/09/17 02:28:52;;;;;;;;;;;11.60;99.90;;;;;;6286939;22;19925;-76
2022/09/17 02:31:18;;;;;;;;;;;11.60;99.90;;;;;;6312497;22;20222;-77
2022/09/17 02:33:47;;;;;;;;;;;11.70;99.90;;;;;;6286470;22;19926;-78
2022/09/17 02:36:12;;;;;;;;;;;11.70;99.90;;;;;;6286911;22;20348;-77
2022/09/17 02:38:40;;;;;;;;;;;11.60;99.90;;;;;;6312804;22;19922;-77
2022/09/17 02:41:13;;;;;;;;;;;11.60;99.90;;;;;;6312265;22;19969;-76
2022/09/17 02:43:45;;;;;;;;;;;11.50;99.90;;;;;;6312707;22;19918;-77
2022/09/17 02:46:29;;;;;;;;;;;11.50;99.90;;;;;;6312332;22;19993;-75
2022/09/17 02:49:03;;;;;;;;;;;11.50;99.90;;;;;;6286133;22;19919;-77
2022/09/17 02:51:34;;;;;;;;;;;11.50;99.90;;;;;;6311915;22;20241;-76
2022/09/17 02:54:15;;;;;;;;;;;11.50;99.90;;;;;;6313201;22;19926;-75
2022/09/17 02:56:47;;;;;;;;;;;11.50;99.90;;;;;;6287289;22;20004;-77
2022/09/17 02:59:13;;;;;;;;;;;11.30;99.90;;;;;;6313062;22;19921;-76
2022/09/17 03:01:43;;;;;;;;;;;11.20;99.90;;;;;;6286769;22;20324;-76
2022/09/17 03:04:11;;;;;;;;;;;11.10;99.90;;;;;;6287677;22;19919;-75
2022/09/17 03:06:37;;;;;;;;;;;10.90;99.90;;;;;;6287503;22;19967;-77
2022/09/17 03:09:03;;;;;;;;;;;10.80;99.90;;;;;;6287762;22;19918;-77
2022/09/17 03:11:28;;;;;;;;;;;10.80;99.90;;;;;;6287130;22;19999;-76
2022/09/17 03:13:54;;;;;;;;;;;10.70;99.90;;;;;;6287503;22;20010;-75
2022/09/17 03:16:19;;;;;;;;;;;10.70;99.90;;;;;;6286991;22;19922;-78
2022/09/17 03:18:45;;;;;;;;;;;10.60;99.90;;;;;;6287378;22;19922;-75
2022/09/17 03:21:11;;;;;;;;;;;10.80;99.90;;;;;;6287034;22;19979;-76
2022/09/17 03:23:38;;;;;;;;;;;11.10;99.90;;;;;;6287014;22;20225;-76
2022/09/17 03:26:04;;;;;;;;;;;10.80;99.90;;;;;;6286280;22;19919;-75
2022/09/17 03:28:29;;;;;;;;;;;10.80;99.90;;;;;;6285966;22;19921;-76
2022/09/17 03:30:55;;;;;;;;;;;10.80;99.90;;;;;;6260290;22;19940;-75
2022/09/17 03:33:20;;;;;;;;;;;10.80;99.90;;;;;;6311774;22;19915;-76
2022/09/17 03:35:46;;;;;;;;;;;10.90;99.90;;;;;;6312056;22;19922;-76
2022/09/17 03:38:12;;;;;;;;;;;10.80;99.90;;;;;;6310970;22;19918;-76
2022/09/17 03:40:39;;;;;;;;;;;11.00;99.90;;;;;;6285257;22;19981;-79
2022/09/17 03:43:05;;;;;;;;;;;10.80;99.90;;;;;;6285423;22;19923;-77
2022/09/17 03:45:31;;;;;;;;;;;11.00;99.90;;;;;;6311821;22;20297;-76
2022/09/17 03:47:56;;;;;;;;;;;10.90;99.90;;;;;;6260428;22;20390;-77
2022/09/17 03:50:22;;;;;;;;;;;11.00;99.90;;;;;;6285683;22;19918;-76
2022/09/17 03:52:47;;;;;;;;;;;11.10;99.90;;;;;;6312252;22;19972;-75
2022/09/17 03:55:14;;;;;;;;;;;11.10;99.90;;;;;;6285658;22;19973;-75
2022/09/17 03:57:40;;;;;;;;;;;11.20;99.90;;;;;;6285825;22;19919;-76
2022/09/17 04:00:07;;;;;;;;;;;11.20;99.90;;;;;;6311237;22;20003;-79
2022/09/17 04:02:33;;;;;;;;;;;11.20;99.90;;;;;;6286181;22;19993;-78
2022/09/17 04:04:58;;;;;;;;;;;11.10;99.90;;;;;;6312780;22;20242;-78
2022/09/17 04:07:24;;;;;;;;;;;11.00;99.90;;;;;;6312415;22;19925;-77
2022/09/17 04:09:49;;;;;;;;;;;10.90;99.90;;;;;;6286106;22;19940;-76
2022/09/17 04:12:15;;;;;;;;;;;10.80;99.90;;;;;;6311686;22;19922;-75
2022/09/17 04:14:40;;;;;;;;;;;10.70;99.90;;;;;;6286037;22;19967;-76
2022/09/17 04:17:06;;;;;;;;;;;10.60;99.90;;;;;;6311859;22;19919;-75
2022/09/17 04:19:32;;;;;;;;;;;10.50;99.90;;;;;;6285885;22;19925;-76
2022/09/17 04:21:57;;;;;;;;;;;10.40;99.90;;;;;;6285234;22;19919;-76
2022/09/17 04:24:25;;;;;;;;;;;10.30;99.90;;;;;;6311123;22;19936;-80
2022/09/17 04:26:51;;;;;;;;;;;10.20;99.90;;;;;;6311477;22;19937;-77
2022/09/17 04:29:18;;;;;;;;;;;10.10;99.90;;;;;;6284825;22;21823;-77
2022/09/17 04:31:44;;;;;;;;;;;10.10;99.90;;;;;;6285255;22;19918;-77
2022/09/17 04:34:10;;;;;;;;;;;10.20;99.90;;;;;;6311072;22;19915;-78
2022/09/17 04:36:35;;;;;;;;;;;10.10;99.90;;;;;;6285586;22;19926;-77
2022/09/17 04:39:01;;;;;;;;;;;10.20;99.90;;;;;;6285875;22;20405;-78
2022/09/17 04:41:26;;;;;;;;;;;10.20;99.90;;;;;;6284962;22;19918;-78
2022/09/17 04:43:52;;;;;;;;;;;10.30;99.90;;;;;;6285515;22;19968;-76
2022/09/17 04:46:17;;;;;;;;;;;10.40;99.90;;;;;;6311260;22;19930;-78
2022/09/17 04:48:43;;;;;;;;;;;10.30;99.90;;;;;;6285300;22;20344;-78
2022/09/17 04:51:09;;;;;;;;;;;10.50;99.90;;;;;;6280117;22;19985;-78
2022/09/17 04:53:34;;;;;;;;;;;10.50;99.90;;;;;;6280791;22;19965;-77
2022/09/17 04:56:00;;;;;;;;;;;10.50;99.90;;;;;;6279056;22;20520;-78
2022/09/17 04:58:25;;;;;;;;;;;10.60;99.90;;;;;;6303125;22;19922;-78
2022/09/17 05:00:51;;;;;;;;;;;10.80;99.90;;;;;;6276764;22;19958;-78
2022/09/17 05:03:16;;;;;;;;;;;10.80;99.90;;;;;;6277655;22;20337;-78
2022/09/17 05:05:42;;;;;;;;;;;10.90;99.90;;;;;;6277775;22;19938;-78
2022/09/17 05:08:08;;;;;;;;;;;10.90;99.90;;;;;;6277618;22;20357;-78
2022/09/17 05:10:33;;;;;;;;;;;10.80;99.90;;;;;;6277641;22;19923;-78
2022/09/17 05:12:59;;;;;;;;;;;10.80;99.90;;;;;;6280038;22;20004;-78
2022/09/17 05:15:25;;;;;;;;;;;10.70;99.90;;;;;;6306039;22;20253;-77
2022/09/17 05:17:51;;;;;;;;;;;10.70;99.90;;;;;;6279971;22;19915;-77
2022/09/17 05:20:16;;;;;;;;;;;10.70;99.90;;;;;;6305971;22;20368;-78
2022/09/17 05:22:42;;;;;;;;;;;10.70;99.90;;;;;;6280246;22;19927;-78
2022/09/17 05:25:08;;;;;;;;;;;10.70;99.90;;;;;;6305625;22;19915;-78
2022/09/17 05:27:33;;;;;;;;;;;10.70;99.90;;;;;;6279779;22;20226;-78
2022/09/17 05:29:59;;;;;;;;;;;10.80;99.90;;;;;;6279773;22;19915;-78
2022/09/17 05:32:24;;;;;;;;;;;10.80;99.90;;;;;;6305622;22;20353;-78
2022/09/17 05:34:50;;;;;;;;;;;10.80;99.90;;;;;;6280225;22;19915;-78
2022/09/17 05:37:15;;;;;;;;;;;10.90;99.90;;;;;;6280133;22;19990;-78
2022/09/17 05:39:42;;;;;;;;;;;10.90;99.90;;;;;;6279652;22;20399;-78
2022/09/17 05:42:07;;;;;;;;;;;10.90;99.90;;;;;;6305426;22;19918;-77
2022/09/17 05:44:33;;;;;;;;;;;10.80;99.90;;;;;;6279938;22;19993;-77
2022/09/17 05:46:58;;;;;;;;;;;10.80;99.90;;;;;;6305329;22;19922;-78
2022/09/17 05:49:24;;;;;;;;;;;10.70;99.90;;;;;;6279805;22;20368;-77
2022/09/17 05:51:50;;;;;;;;;;;10.60;99.90;;;;;;6279911;22;19915;-77
2022/09/17 05:54:16;;;;;;;;;;;10.60;99.90;;;;;;6279888;22;19923;-78
2022/09/17 05:56:41;;;;;;;;;;;10.60;99.90;;;;;;6280283;22;19921;-77
2022/09/17 05:59:07;;;;;;;;;;;10.70;99.90;;;;;;6280206;22;20226;-77
2022/09/17 06:01:33;;;;;;;;;;;10.80;99.90;;;;;;6280167;22;19915;-78
2022/09/17 06:04:02;;;;;;;;;;;10.90;99.90;;;;;;6280282;22;19923;-78
2022/09/17 06:06:29;;;;;;;;;;;11.00;99.90;;;;;;6280931;22;20377;-77
2022/09/17 06:08:58;;;;;;;;;;;11.00;99.90;;;;;;6306495;22;19961;-78
2022/09/17 06:11:23;;;;;;;;;;;11.00;99.90;;;;;;6280911;22;20328;-77
2022/09/17 06:13:52;;;;;;;;;;;10.90;99.90;;;;;;6281114;22;19989;-78
2022/09/17 06:16:17;;;;;;;;;;;10.90;99.90;;;;;;6306717;22;19924;-78
2022/09/17 06:18:43;;;;;;;;;;;10.90;99.90;;;;;;6308335;22;19914;-78
2022/09/17 06:21:08;;;;;;;;;;;10.90;99.90;;;;;;6308061;22;19903;-77
2022/09/17 06:23:34;;;;;;;;;;;11.00;99.90;;;;;;6309939;22;19919;-77
2022/09/17 06:26:00;;;;;;;;;;;11.10;99.90;;;;;;6308768;22;19919;-77
2022/09/17 06:28:26;;;;;;;;;;;11.30;99.90;;;;;;6281756;22;19919;-79
2022/09/17 06:30:53;;;;;;;;;;;11.50;99.90;;;;;;6307356;22;19950;-78
2022/09/17 06:33:19;;;;;;;;;;;11.70;99.90;;;;;;6282065;22;19919;-78
2022/09/17 06:35:45;;;;;;;;;;;11.70;99.90;;;;;;6307778;22;19961;-78
2022/09/17 06:38:11;;;;;;;;;;;12.10;99.90;;;;;;6281564;22;19919;-78
2022/09/17 06:40:36;;;;;;;;;;;11.80;99.90;;;;;;6307139;22;19919;-77
2022/09/17 06:43:02;;;;;;;;;;;11.70;99.90;;;;;;6307234;22;19926;-77
2022/09/17 06:45:28;;;;;;;;;;;11.50;99.90;;;;;;6307670;22;20325;-78
2022/09/17 06:47:53;;;;;;;;;;;11.50;99.90;;;;;;6306953;22;19915;-78
2022/09/17 06:50:19;;;;;;;;;;;11.40;99.90;;;;;;6280909;22;19914;-78
2022/09/17 06:52:51;;;;;;;;;;;11.40;99.90;;;;;;6281390;22;19919;-78
2022/09/17 06:55:17;;;;;;;;;;;11.30;99.90;;;;;;6281646;22;19980;-78
2022/09/17 06:57:42;;;;;;;;;;;10.90;99.90;;;;;;6281569;22;20349;-77
2022/09/17 07:00:08;;;;;;;;;;;10.60;99.90;;;;;;6281147;22;19915;-78
2022/09/17 07:02:34;;;;;;;;;;;10.20;99.90;;;;;;6281029;22;19915;-77
2022/09/17 07:05:00;;;;;;;;;;;10.10;99.90;;;;;;6281197;22;19934;-79
2022/09/17 07:07:25;;;;;;;;;;;10.10;99.90;;;;;;6281773;22;19950;-78
2022/09/17 07:09:52;;;;;;;;;;;10.00;99.90;;;;;;6281306;22;19992;-78
2022/09/17 07:12:18;;;;;;;;;;;10.00;99.90;;;;;;6281397;22;20241;-78
2022/09/17 07:14:44;;;;;;;;;;;10.10;99.90;;;;;;6281265;22;19922;-79
2022/09/17 07:17:09;;;;;;;;;;;10.10;99.90;;;;;;6280804;22;19922;-78
2022/09/17 07:19:35;;;;;;;;;;;10.30;99.90;;;;;;6281072;22;19923;-79
2022/09/17 07:22:00;;;;;;;;;;;10.30;99.90;;;;;;6281039;22;19923;-79
2022/09/17 07:24:26;;;;;;;;;;;10.40;99.90;;;;;;6307287;22;19961;-79
2022/09/17 07:26:51;;;;;;;;;;;10.50;99.90;;;;;;6280533;22;19919;-79
2022/09/17 07:29:17;;;;;;;;;;;10.70;99.90;;;;;;6281378;22;19986;-79
2022/09/17 07:31:43;;;;;;;;;;;10.70;99.90;;;;;;6280980;22;20322;-78
2022/09/17 07:34:09;;;;;;;;;;;11.00;99.90;;;;;;6280840;22;19915;-79
2022/09/17 07:36:34;;;;;;;;;;;11.10;99.90;;;;;;6280926;22;19985;-78
2022/09/17 07:39:00;;;;;;;;;;;11.20;99.90;;;;;;6306235;22;19919;-80
2022/09/17 07:41:25;;;;;;;;;;;11.10;99.90;;;;;;6279876;22;19923;-80
2022/09/17 07:43:52;;;;;;;;;;;11.10;99.90;;;;;;6280302;22;19945;-79
2022/09/17 07:46:18;;;;;;;;;;;11.30;99.90;;;;;;6280664;22;19914;-78
2022/09/17 07:48:45;;;;;;;;;;;11.30;99.90;;;;;;6280981;22;20231;-79
2022/09/17 07:51:18;;;;;;;;;;;11.60;99.90;;;;;;6306254;22;19919;-79
2022/09/17 07:53:44;;;;;;;;;;;11.60;99.90;;;;;;6281371;22;20245;-79
2022/09/17 07:56:10;;;;;;;;;;;11.50;99.90;;;;;;6281183;22;19985;-79
2022/09/17 07:58:35;;;;;;;;;;;11.40;99.90;;;;;;6306475;22;19922;-78
2022/09/17 08:01:02;;;;;;;;;;;11.30;99.90;;;;;;6280350;22;20306;-78
2022/09/17 08:03:28;;;;;;;;;;;11.20;99.90;;;;;;6306415;22;20350;-79
2022/09/17 08:05:53;;;;;;;;;;;11.10;99.90;;;;;;6280426;22;19915;-79
2022/09/17 08:08:19;;;;;;;;;;;11.10;99.90;;;;;;6306696;22;19915;-78
2022/09/17 08:10:44;;;;;;;;;;;11.40;99.90;;;;;;6280741;22;19919;-78
2022/09/17 08:13:10;;;;;;;;;;;11.70;99.90;;;;;;6281632;22;19989;-77
2022/09/17 08:15:38;;;;;;;;;;;11.70;99.90;;;;;;6306928;22;19923;-81
2022/09/17 08:18:10;;;;;;;;;;;11.90;99.90;;;;;;6281600;22;19919;-78
2022/09/17 08:20:36;;;;;;;;;;;11.80;99.90;;;;;;6307010;22;20304;-79
2022/09/17 08:23:01;;;;;;;;;;;11.80;99.90;;;;;;6281344;22;19967;-77
2022/09/17 08:25:30;;;;;;;;;;;11.70;99.90;;;;;;6307319;22;19915;-84
2022/09/17 08:27:56;;;;;;;;;;;11.70;99.90;;;;;;6277877;22;19923;-80
2022/09/17 08:30:24;;;;;;;;;;;11.70;99.90;;;;;;6279765;22;19954;-82
2022/09/17 08:32:49;;;;;;;;;;;11.80;99.90;;;;;;6279378;22;20038;-78
2022/09/17 08:35:21;;;;;;;;;;;12.00;99.90;;;;;;6280295;22;19954;-81
2022/09/17 08:37:47;;;;;;;;;;;12.30;99.90;;;;;;6279333;22;19997;-77
2022/09/17 08:40:15;;;;;;;;;;;12.70;99.90;;;;;;6305520;22;19954;-77
2022/09/17 08:42:50;;;;;;;;;;;12.90;99.90;;;;;;6304602;22;20349;-76
2022/09/17 08:45:18;;;;;;;;;;;13.10;99.90;;;;;;6304305;22;19961;-80
2022/09/17 08:47:47;;;;;;;;;;;13.30;99.90;;;;;;6278859;22;19915;-81
2022/09/17 08:50:13;;;;;;;;;;;13.50;99.90;;;;;;6279046;22;19914;-79
2022/09/17 08:52:53;;;;;;;;;;;13.70;99.90;;;;;;6279548;22;19926;-78
2022/09/17 08:55:30;;;;;;;;;;;13.60;99.90;;;;;;6280293;22;20320;-77
2022/09/17 08:58:14;;;;;;;;;;;13.60;99.90;;;;;;6305038;22;19925;-79
2022/09/17 09:00:46;;;;;;;;;;;13.80;99.90;;;;;;6278334;22;19922;-79
2022/09/17 09:03:50;;;;;;;;;;;13.90;99.90;;;;;;6277849;22;19977;-82
2022/09/17 09:06:17;;;;;;;;;;;14.20;99.90;;;;;;6132805;23;19995;-76
2022/09/17 09:08:49;;;;;;;;;;;14.10;99.90;;;;;;6132352;23;19927;-80
2022/09/17 09:11:23;;;;;;;;;;;13.80;99.90;;;;;;6205388;22;20124;-80
2022/09/17 09:13:52;;;;;;;;;;;13.50;99.90;;;;;;6278236;22;19915;-79
2022/09/17 09:16:22;;;;;;;;;;;13.10;99.90;;;;;;6304449;22;19926;-78
2022/09/17 09:18:55;;;;;;;;;;;13.00;99.90;;;;;;6278565;22;19914;-76
2022/09/17 09:21:28;;;;;;;;;;;13.10;99.90;;;;;;6278333;22;19979;-75
2022/09/17 09:23:57;;;;;;;;;;;13.40;99.90;;;;;;6303966;22;19927;-77
2022/09/17 09:26:31;;;;;;;;;;;13.70;99.90;;;;;;6278791;22;19922;-78
2022/09/17 09:29:00;;;;;;;;;;;13.90;99.90;;;;;;6278498;22;19922;-77
2022/09/17 09:31:32;;;;;;;;;;;14.10;99.90;;;;;;6304451;22;19919;-77
2022/09/17 09:34:00;;;;;;;;;;;14.10;99.90;;;;;;6278352;22;19922;-77
2022/09/17 09:36:27;;;;;;;;;;;13.90;99.90;;;;;;6253907;22;19927;-77
2022/09/17 09:38:58;;;;;;;;;;;13.70;99.90;;;;;;6278406;22;19922;-76
2022/09/17 09:41:27;;;;;;;;;;;13.40;99.90;;;;;;6304936;22;19915;-75
2022/09/17 09:44:02;;;;;;;;;;;13.20;99.90;;;;;;6278382;22;20240;-78
2022/09/17 09:46:31;;;;;;;;;;;13.20;99.90;;;;;;6278786;22;20306;-77
2022/09/17 09:48:56;;;;;;;;;;;13.30;99.90;;;;;;6278463;22;19915;-78
2022/09/17 09:51:41;;;;;;;;;;;13.60;99.90;;;;;;6277259;22;19957;-77
2022/09/17 09:54:16;;;;;;;;;;;13.60;99.90;;;;;;6279911;22;19919;-78
2022/09/17 09:56:48;;;;;;;;;;;13.60;99.90;;;;;;6280210;22;19964;-77
2022/09/17 09:59:13;;;;;;;;;;;13.60;99.90;;;;;;6282149;22;19921;-77
2022/09/17 10:01:41;;;;;;;;;;;13.60;99.90;;;;;;6307734;22;20480;-77
2022/09/17 10:04:15;;;;;;;;;;;13.90;99.90;;;;;;6281922;22;19990;-76
2022/09/17 10:06:41;;;;;;;;;;;14.30;99.90;;;;;;6281797;22;19926;-76
2022/09/17 10:09:08;;;;;;;;;;;14.30;99.90;;;;;;6282595;22;19915;-75
2022/09/17 10:11:38;;;;;;;;;;;13.80;99.90;;;;;;6308388;22;19915;-78
2022/09/17 10:14:19;;;;;;;;;;;13.50;99.90;;;;;;6308411;22;19915;-78
2022/09/17 10:16:44;;;;;;;;;;;13.50;99.90;;;;;;6282185;22;19946;-79
2022/09/17 10:19:28;;;;;;;;;;;13.50;99.90;;;;;;6280743;22;19915;-78
2022/09/17 10:21:54;;;;;;;;;;;13.40;99.90;;;;;;6255180;22;19915;-81
2022/09/17 10:24:28;;;;;;;;;;;13.40;99.90;;;;;;6280694;22;20293;-82
2022/09/17 10:27:02;;;;;;;;;;;13.30;99.90;;;;;;6281950;22;20369;-80
2022/09/17 10:29:28;;;;;;;;;;;13.10;99.90;;;;;;6256172;22;19915;-81
2022/09/17 10:31:55;;;;;;;;;;;13.00;99.90;;;;;;6283838;22;20321;-79
2022/09/17 10:34:22;;;;;;;;;;;12.90;99.90;;;;;;6284236;22;20341;-78
2022/09/17 10:36:48;;;;;;;;;;;12.60;99.90;;;;;;6307210;22;20048;-81
2022/09/17 10:39:26;;;;;;;;;;;12.50;99.90;;;;;;6281969;22;19915;-79
2022/09/17 10:41:53;;;;;;;;;;;12.50;99.90;;;;;;6281433;22;19922;-77
2022/09/17 10:44:23;;;;;;;;;;;12.40;99.90;;;;;;6307437;22;20321;-78
2022/09/17 10:46:49;;;;;;;;;;;12.30;99.90;;;;;;6282472;22;20312;-76
2022/09/17 10:49:33;;;;;;;;;;;12.20;99.90;;;;;;6308391;22;19915;-79
2022/09/17 10:52:07;;;;;;;;;;;12.20;99.90;;;;;;6281786;22;19915;-76
2022/09/17 10:54:39;;;;;;;;;;;12.30;99.90;;;;;;6308184;22;20322;-78
2022/09/17 10:57:06;;;;;;;;;;;12.60;99.90;;;;;;6282117;22;19915;-77
2022/09/17 10:59:34;;;;;;;;;;;12.90;99.90;;;;;;6307861;22;19926;-77
2022/09/17 11:02:00;;;;;;;;;;;13.30;99.90;;;;;;6282259;22;20234;-74
2022/09/17 11:04:43;;;;;;;;;;;13.70;99.90;;;;;;6282156;22;19954;-76
2022/09/17 11:07:18;;;;;;;;;;;13.00;99.90;;;;;;6307816;22;20318;-78
2022/09/17 11:09:58;;;;;;;;;;;12.00;99.90;;;;;;6307251;22;20286;-76
2022/09/17 11:12:26;;;;;;;;;;;11.70;99.90;;;;;;6282183;22;19919;-76
2022/09/17 11:15:11;;;;;;;;;;;11.60;99.90;;;;;;6282018;22;19919;-75
2022/09/17 11:17:55;;;;;;;;;;;11.50;99.90;;;;;;6282111;22;19919;-76
2022/09/17 11:20:21;;;;;;;;;;;11.60;99.90;;;;;;6281816;22;19922;-75
2022/09/17 11:22:50;;;;;;;;;;;11.70;99.90;;;;;;6281998;22;19915;-77
2022/09/17 11:25:24;;;;;;;;;;;11.80;99.90;;;;;;6281966;22;19923;-78
2022/09/17 11:28:08;;;;;;;;;;;12.00;99.90;;;;;;6281878;22;19922;-77
2022/09/17 11:31:06;;;;;;;;;;;12.20;99.90;;;;;;6281998;22;19918;-77
2022/09/17 11:33:46;;;;;;;;;;;12.60;99.90;;;;;;6245666;22;19915;-77
2022/09/17 11:36:16;;;;;;;;;;;13.00;99.90;;;;;;6307031;22;19954;-75
2022/09/17 11:38:45;;;;;;;;;;;13.30;99.90;;;;;;6281185;22;20325;-75
2022/09/17 11:41:29;;;;;;;;;;;13.20;99.90;;;;;;6306279;22;20238;-76
2022/09/17 11:44:11;;;;;;;;;;;13.40;99.90;;;;;;6275350;22;19919;-75
2022/09/17 11:46:48;;;;;;;;;;;13.50;99.90;;;;;;6305158;22;19921;-74
2022/09/17 11:49:15;;;;;;;;;;;13.70;99.90;;;;;;6305041;22;19925;-78
2022/09/17 11:52:24;;;;;;;;;;;13.80;99.90;;;;;;6279227;22;19964;-77
2022/09/17 11:58:31;;;;;;;;;;;14.20;99.90;;;;;;6306544;22;19921;-73
2022/09/17 12:01:06;;;;;;;;;;;14.30;99.90;;;;;;6279481;22;19962;-73
2022/09/17 12:03:33;;;;;;;;;;;14.30;99.90;;;;;;6279607;22;20365;-76
2022/09/17 12:06:02;;;;;;;;;;;14.40;99.90;;;;;;6280059;22;19914;-74
2022/09/17 12:15:36;;;;;;;;;;;14.30;99.90;;;;;;6305333;22;19922;-76
2022/09/17 12:18:22;;;;;;;;;;;14.40;99.90;;;;;;6239687;22;19914;-75
2022/09/17 12:20:52;;;;;;;;;;;14.50;99.90;;;;;;6307234;22;19915;-77
2022/09/17 12:23:22;;;;;;;;;;;14.80;99.90;;;;;;6310481;22;19926;-76
2022/09/17 12:25:59;;;;;;;;;;;14.70;99.90;;;;;;6308536;22;19922;-76
2022/09/17 12:28:33;;;;;;;;;;;14.30;99.90;;;;;;6308372;22;20194;-76
2022/09/17 12:31:07;;;;;;;;;;;13.90;99.90;;;;;;6334216;22;19970;-75
2022/09/17 12:33:36;;;;;;;;;;;13.60;99.90;;;;;;6298220;22;19919;-74
2022/09/17 12:36:37;;;;;;;;;;;13.40;99.90;;;;;;6305862;22;19914;-72
2022/09/17 12:39:17;;;;;;;;;;;13.30;99.90;;;;;;6133007;23;19987;-73
2022/09/17 12:41:42;;;;;;;;;;;13.50;99.90;;;;;;6262564;22;19973;-72
2022/09/17 12:44:14;;;;;;;;;;;13.80;99.90;;;;;;6305021;22;20344;-73
2022/09/17 12:46:59;;;;;;;;;;;13.80;99.90;;;;;;6304661;22;19925;-80
2022/09/17 12:49:42;;;;;;;;;;;13.80;99.90;;;;;;6279747;22;19926;-80
2022/09/17 12:52:52;;;;;;;;;;;13.60;99.90;;;;;;6278328;22;20056;-76
2022/09/17 12:55:55;;;;;;;;;;;13.30;99.90;;;;;;6305864;22;20001;-80
2022/09/17 12:58:29;;;;;;;;;;;13.50;99.90;;;;;;6303555;22;20294;-80
2022/09/17 13:04:55;;;;;;;;;;;13.70;99.90;;;;;;6241952;23;19950;-79
2022/09/17 13:07:47;;;;;;;;;;;14.00;99.90;;;;;;6269684;22;20403;-82
2022/09/17 13:13:35;;;;;;;;;;;13.70;99.90;;;;;;6307108;22;20260;-75
2022/09/17 13:19:46;;;;;;;;;;;13.60;99.90;;;;;;6305079;22;20383;-79
2022/09/17 13:22:19;;;;;;;;;;;13.60;99.90;;;;;;6278703;22;19962;-75
2022/09/17 13:28:12;;;;;;;;;;;13.60;99.90;;;;;;6305053;22;19913;-91
2022/09/17 13:31:00;;;;;;;;;;;13.90;99.90;;;;;;6304732;22;19976;-78
2022/09/17 13:33:52;;;;;;;;;;;14.00;99.90;;;;;;6304066;22;19926;-78
2022/09/17 13:36:44;;;;;;;;;;;14.00;99.90;;;;;;6273217;22;19937;-76
2022/09/17 13:39:29;;;;;;;;;;;13.60;99.90;;;;;;6280625;22;19914;-75
2022/09/17 13:45:20;;;;;;;;;;;12.80;99.90;;;;;;6306128;22;19988;-80
2022/09/17 13:50:53;;;;;;;;;;;12.20;99.90;;;;;;6246875;22;19920;-84
2022/09/17 13:53:23;;;;;;;;;;;12.10;99.90;;;;;;6276393;22;19915;-74
2022/09/17 13:56:03;;;;;;;;;;;12.00;99.90;;;;;;6306149;22;19915;-80
2022/09/17 13:58:30;;;;;;;;;;;12.00;99.90;;;;;;6280533;22;19951;-78
2022/09/17 14:01:08;;;;;;;;;;;12.00;99.90;;;;;;6279841;22;19923;-84
2022/09/17 14:03:36;;;;;;;;;;;12.20;99.90;;;;;;6281165;22;19918;-76
2022/09/17 14:10:24;;;;;;;;;;;;;;;;;;;;;
2022/09/17 14:16:41;;;;;;;;;;;12.60;99.90;;;;;;6243511;23;19930;-72
2022/09/17 14:19:20;;;;;;;;;;;12.80;99.90;;;;;;6217976;23;19919;-76
2022/09/17 14:22:13;;;;;;;;;;;12.90;99.90;;;;;;6214778;23;19954;-77
2022/09/17 14:25:04;;;;;;;;;;;12.90;99.90;;;;;;6255916;22;19919;-81
2022/09/17 14:27:54;;;;;;;;;;;13.10;99.90;;;;;;6305472;22;20331;-77
2022/09/17 14:30:27;;;;;;;;;;;13.10;99.90;;;;;;6305721;22;19922;-73
2022/09/17 14:32:59;;;;;;;;;;;13.30;99.90;;;;;;6306156;22;19922;-72
2022/09/17 14:35:43;;;;;;;;;;;13.40;99.90;;;;;;6306106;22;19915;-76
2022/09/17 14:38:19;;;;;;;;;;;13.40;99.90;;;;;;6306232;22;19919;-73
2022/09/17 14:40:46;;;;;;;;;;;13.40;99.90;;;;;;6279333;22;19964;-76
2022/09/17 14:43:24;;;;;;;;;;;13.40;99.90;;;;;;6279792;22;20010;-76
2022/09/17 14:45:51;;;;;;;;;;;13.40;99.90;;;;;;6280073;22;19921;-75
2022/09/17 14:48:18;;;;;;;;;;;13.50;99.90;;;;;;6306225;22;19915;-77
2022/09/17 14:50:47;;;;;;;;;;;13.40;99.90;;;;;;6282315;22;19926;-76
2022/09/17 14:53:17;;;;;;;;;;;13.50;99.90;;;;;;6285256;22;19921;-76
2022/09/17 14:55:43;;;;;;;;;;;13.40;99.90;;;;;;6285349;22;19921;-77
2022/09/17 14:58:24;;;;;;;;;;;13.50;99.90;;;;;;6285239;22;19915;-78
2022/09/17 15:00:50;;;;;;;;;;;13.60;99.90;;;;;;6310643;22;19967;-76
2022/09/17 15:03:20;;;;;;;;;;;13.70;99.90;;;;;;6311046;22;20333;-74
2022/09/17 15:05:49;;;;;;;;;;;13.60;99.90;;;;;;6284944;22;20226;-80
2022/09/17 15:08:16;;;;;;;;;;;13.50;99.90;;;;;;6285017;22;20110;-79
2022/09/17 15:10:54;;;;;;;;;;;13.50;99.90;;;;;;6285129;22;19914;-75
2022/09/17 15:13:30;;;;;;;;;;;13.50;99.90;;;;;;6338403;22;20241;-77
2022/09/17 15:16:04;;;;;;;;;;;13.40;99.90;;;;;;6284927;22;19922;-76